createdAt,value
2017-10-12T00:00:37.180Z,15.33
2017-10-12T00:01:37.154Z,15.34
2017-10-12T00:02:37.135Z,15.35
2017-10-12T00:03:37.104Z,15.31
2017-10-12T00:04:37.095Z,15.37
2017-10-12T00:05:37.071Z,15.33
2017-10-12T00:06:37.038Z,15.35
2017-10-12T00:07:37.015Z,15.38
2017-10-12T00:08:36.990Z,15.4
2017-10-12T00:09:36.981Z,15.41
2017-10-12T00:10:36.956Z,15.41
2017-10-12T00:11:36.934Z,15.43
2017-10-12T00:12:36.910Z,15.46
2017-10-12T00:13:36.896Z,15.46
2017-10-12T00:14:36.871Z,15.43
2017-10-12T00:15:36.843Z,15.43
2017-10-12T00:16:36.828Z,15.41
2017-10-12T00:17:36.798Z,15.48
2017-10-12T00:18:36.775Z,15.44
2017-10-12T00:19:36.755Z,15.41
2017-10-12T00:20:36.741Z,15.4
2017-10-12T00:21:36.701Z,15.38
2017-10-12T00:22:36.688Z,15.4
2017-10-12T00:23:36.666Z,15.46
2017-10-12T00:24:36.645Z,15.41
2017-10-12T00:25:36.620Z,15.37
2017-10-12T00:26:36.619Z,15.4
2017-10-12T00:27:36.581Z,15.37
2017-10-12T00:28:36.569Z,15.37
2017-10-12T00:29:36.536Z,15.4
2017-10-12T00:30:36.519Z,15.35
2017-10-12T00:31:36.501Z,15.27
2017-10-12T00:32:36.490Z,15.27
2017-10-12T00:33:36.446Z,15.3
2017-10-12T00:34:36.430Z,15.28
2017-10-12T00:35:36.412Z,15.3
2017-10-12T00:36:36.386Z,15.28
2017-10-12T00:37:36.362Z,15.2
2017-10-12T00:38:36.355Z,15.22
2017-10-12T00:39:36.318Z,15.18
2017-10-12T00:40:36.299Z,15.2
2017-10-12T00:41:36.275Z,15.15
2017-10-12T00:42:36.250Z,15.12
2017-10-12T00:43:36.231Z,15.13
2017-10-12T00:44:36.208Z,15.18
2017-10-12T00:45:35.868Z,15.04
2017-10-12T00:46:36.169Z,15
2017-10-12T00:47:36.148Z,15.01
2017-10-12T00:48:35.799Z,15.03
2017-10-12T00:49:36.105Z,15.01
2017-10-12T00:50:36.078Z,15.04
2017-10-12T00:51:36.070Z,14.97
2017-10-12T00:52:36.031Z,14.85
2017-10-12T00:53:36.012Z,14.87
2017-10-12T00:54:35.667Z,14.86
2017-10-12T00:55:35.980Z,14.74
2017-10-12T00:56:35.951Z,14.86
2017-10-12T00:57:35.922Z,14.78
2017-10-12T00:58:35.899Z,14.66
2017-10-12T00:59:35.879Z,14.63
2017-10-12T01:00:35.854Z,14.56
2017-10-12T01:01:35.843Z,14.59
2017-10-12T01:02:35.817Z,14.53
2017-10-12T01:03:35.148Z,14.46
2017-10-12T01:04:35.763Z,14.39
2017-10-12T01:05:35.744Z,14.38
2017-10-12T01:06:35.721Z,14.38
2017-10-12T01:07:35.698Z,14.3
2017-10-12T01:08:35.693Z,14.21
2017-10-12T01:09:35.664Z,14.19
2017-10-12T01:10:35.309Z,14.13
2017-10-12T01:11:35.608Z,14.2
2017-10-12T01:12:35.585Z,14.12
2017-10-12T01:13:35.575Z,14.17
2017-10-12T01:14:35.550Z,14.09
2017-10-12T01:15:35.516Z,14.04
2017-10-12T01:16:35.498Z,13.99
2017-10-12T01:17:35.477Z,14.02
2017-10-12T01:18:35.454Z,13.94
2017-10-12T01:19:35.429Z,13.96
2017-10-12T01:20:35.414Z,13.94
2017-10-12T01:21:35.384Z,13.87
2017-10-12T01:22:35.357Z,13.93
2017-10-12T01:23:35.342Z,13.87
2017-10-12T01:24:35.318Z,13.9
2017-10-12T01:25:35.298Z,13.84
2017-10-12T01:26:35.279Z,13.93
2017-10-12T01:27:35.253Z,13.93
2017-10-12T01:28:35.228Z,13.84
2017-10-12T01:29:35.205Z,13.91
2017-10-12T01:30:35.188Z,13.87
2017-10-12T01:31:35.164Z,13.86
2017-10-12T01:32:35.143Z,13.86
2017-10-12T01:33:35.124Z,13.83
2017-10-12T01:34:35.100Z,13.83
2017-10-12T01:35:35.072Z,13.87
2017-10-12T01:36:35.054Z,13.81
2017-10-12T01:37:34.717Z,13.86
2017-10-12T01:38:35.005Z,13.86
2017-10-12T01:39:34.980Z,13.81
2017-10-12T01:40:34.961Z,13.86
2017-10-12T01:41:34.619Z,13.84
2017-10-12T01:42:34.922Z,13.84
2017-10-12T01:43:34.890Z,13.83
2017-10-12T01:44:34.872Z,13.91
2017-10-12T01:45:34.845Z,13.88
2017-10-12T01:46:34.825Z,13.87
2017-10-12T01:47:34.805Z,13.88
2017-10-12T01:48:34.785Z,13.87
2017-10-12T01:49:34.762Z,13.93
2017-10-12T01:50:34.735Z,13.87
2017-10-12T01:51:34.710Z,13.87
2017-10-12T01:52:34.696Z,13.9
2017-10-12T01:53:34.670Z,13.93
2017-10-12T01:54:34.324Z,13.91
2017-10-12T01:55:34.630Z,13.93
2017-10-12T01:56:34.594Z,13.9
2017-10-12T01:57:34.593Z,13.99
2017-10-12T01:58:34.561Z,13.94
2017-10-12T01:59:34.530Z,13.94
2017-10-12T02:00:34.512Z,13.93
2017-10-12T02:01:34.491Z,14.04
2017-10-12T02:02:34.465Z,14.04
2017-10-12T02:03:34.444Z,14.02
2017-10-12T02:04:34.416Z,13.98
2017-10-12T02:05:34.397Z,14.02
2017-10-12T02:06:34.375Z,14.04
2017-10-12T02:07:34.349Z,14.05
2017-10-12T02:08:34.329Z,14.01
2017-10-12T02:09:34.308Z,14.04
2017-10-12T02:10:34.293Z,14.05
2017-10-12T02:11:33.947Z,14.02
2017-10-12T02:12:33.926Z,14.09
2017-10-12T02:13:34.219Z,14.04
2017-10-12T02:14:34.199Z,14.12
2017-10-12T02:15:34.179Z,14.11
2017-10-12T02:16:34.159Z,14.08
2017-10-12T02:17:34.127Z,14.08
2017-10-12T02:18:34.129Z,14.21
2017-10-12T02:19:34.076Z,14.12
2017-10-12T02:20:34.050Z,14.06
2017-10-12T02:21:33.722Z,14.06
2017-10-12T02:22:34.012Z,14.12
2017-10-12T02:23:33.687Z,14.12
2017-10-12T02:24:33.971Z,14.09
2017-10-12T02:25:33.942Z,14.16
2017-10-12T02:26:33.935Z,14.12
2017-10-12T02:27:33.899Z,14.12
2017-10-12T02:28:33.878Z,14.11
2017-10-12T02:29:33.855Z,14.11
2017-10-12T02:30:33.878Z,14.12
2017-10-12T02:31:33.500Z,14.24
2017-10-12T02:32:33.796Z,14.05
2017-10-12T02:33:33.777Z,14.09
2017-10-12T02:34:33.764Z,14.08
2017-10-12T02:35:33.722Z,14.05
2017-10-12T02:36:33.701Z,14.16
2017-10-12T02:37:33.677Z,14.11
2017-10-12T02:38:33.669Z,14.08
2017-10-12T02:39:33.649Z,14.11
2017-10-12T02:40:33.293Z,14.05
2017-10-12T02:41:33.598Z,14.12
2017-10-12T02:42:33.567Z,14.08
2017-10-12T02:43:33.542Z,14.08
2017-10-12T02:44:33.525Z,14.16
2017-10-12T02:45:33.509Z,14.09
2017-10-12T02:46:33.469Z,14.02
2017-10-12T02:47:33.455Z,14.08
2017-10-12T02:48:33.427Z,14.16
2017-10-12T02:49:33.434Z,14.06
2017-10-12T02:50:33.384Z,14.09
2017-10-12T02:51:33.364Z,14.17
2017-10-12T02:52:33.347Z,14.11
2017-10-12T02:53:33.332Z,14.05
2017-10-12T02:54:32.983Z,14.08
2017-10-12T02:55:33.278Z,14.13
2017-10-12T02:56:33.256Z,14.08
2017-10-12T02:57:33.264Z,14.08
2017-10-12T02:58:33.212Z,14.09
2017-10-12T02:59:33.185Z,14.11
2017-10-12T03:00:33.165Z,14.11
2017-10-12T03:01:33.142Z,14.12
2017-10-12T03:02:33.119Z,14.08
2017-10-12T03:03:33.098Z,14.08
2017-10-12T03:04:33.080Z,14.16
2017-10-12T03:05:33.058Z,14.21
2017-10-12T03:06:33.037Z,14.16
2017-10-12T03:07:32.998Z,14.12
2017-10-12T03:08:32.986Z,14.23
2017-10-12T03:09:32.969Z,14.16
2017-10-12T03:10:32.946Z,14.23
2017-10-12T03:11:32.921Z,14.08
2017-10-12T03:12:32.893Z,14.2
2017-10-12T03:13:32.879Z,14.16
2017-10-12T03:14:32.860Z,14.17
2017-10-12T03:15:32.826Z,14.27
2017-10-12T03:16:32.804Z,14.36
2017-10-12T03:17:32.467Z,14.35
2017-10-12T03:18:32.766Z,14.3
2017-10-12T03:19:32.763Z,14.39
2017-10-12T03:20:32.727Z,14.45
2017-10-12T03:21:32.698Z,14.44
2017-10-12T03:22:32.699Z,14.45
2017-10-12T03:23:32.660Z,14.44
2017-10-12T03:24:32.634Z,14.41
2017-10-12T03:25:32.609Z,14.41
2017-10-12T03:26:32.585Z,14.31
2017-10-12T03:27:32.565Z,14.34
2017-10-12T03:28:32.541Z,14.31
2017-10-12T03:29:32.527Z,14.29
2017-10-12T03:30:32.501Z,14.29
2017-10-12T03:31:32.476Z,14.23
2017-10-12T03:32:32.459Z,14.17
2017-10-12T03:33:32.431Z,14.21
2017-10-12T03:34:32.085Z,14.24
2017-10-12T03:35:32.397Z,14.17
2017-10-12T03:36:32.357Z,14.12
2017-10-12T03:37:32.339Z,14.09
2017-10-12T03:38:32.317Z,14.02
2017-10-12T03:39:32.298Z,14.02
2017-10-12T03:40:32.272Z,13.96
2017-10-12T03:41:32.247Z,13.96
2017-10-12T03:42:32.226Z,13.94
2017-10-12T03:43:32.219Z,13.87
2017-10-12T03:44:32.182Z,13.86
2017-10-12T03:45:32.161Z,13.73
2017-10-12T03:46:32.145Z,13.72
2017-10-12T03:47:32.137Z,13.72
2017-10-12T03:48:32.099Z,13.69
2017-10-12T03:49:32.071Z,13.66
2017-10-12T03:50:31.730Z,13.63
2017-10-12T03:51:32.021Z,13.59
2017-10-12T03:52:32.010Z,13.62
2017-10-12T03:53:32.000Z,13.5
2017-10-12T03:54:31.961Z,13.54
2017-10-12T03:55:31.614Z,13.65
2017-10-12T03:56:31.923Z,13.61
2017-10-12T03:57:31.897Z,13.62
2017-10-12T03:58:31.869Z,13.59
2017-10-12T03:59:31.852Z,13.62
2017-10-12T04:00:31.821Z,13.62
2017-10-12T04:01:31.816Z,13.46
2017-10-12T04:02:31.777Z,13.47
2017-10-12T04:03:31.752Z,13.48
2017-10-12T04:04:31.726Z,13.48
2017-10-12T04:05:31.712Z,13.5
2017-10-12T04:06:31.685Z,13.53
2017-10-12T04:07:31.663Z,13.54
2017-10-12T04:08:31.644Z,13.48
2017-10-12T04:09:31.622Z,13.5
2017-10-12T04:10:31.601Z,13.51
2017-10-12T04:11:31.579Z,13.47
2017-10-12T04:12:31.242Z,13.44
2017-10-12T04:13:31.207Z,13.39
2017-10-12T04:14:31.508Z,13.44
2017-10-12T04:15:31.494Z,13.46
2017-10-12T04:16:31.141Z,13.38
2017-10-12T04:17:31.437Z,13.29
2017-10-12T04:18:31.439Z,13.32
2017-10-12T04:19:31.394Z,13.29
2017-10-12T04:20:31.378Z,13.28
2017-10-12T04:21:31.372Z,13.24
2017-10-12T04:22:31.323Z,13.22
2017-10-12T04:23:31.301Z,13.21
2017-10-12T04:24:31.287Z,13.17
2017-10-12T04:25:31.257Z,13.09
2017-10-12T04:26:31.252Z,13.16
2017-10-12T04:27:31.211Z,13.14
2017-10-12T04:28:31.191Z,13.13
2017-10-12T04:29:31.180Z,13.14
2017-10-12T04:30:31.141Z,13.07
2017-10-12T04:31:31.121Z,13.09
2017-10-12T04:32:30.781Z,13.14
2017-10-12T04:33:31.073Z,13.13
2017-10-12T04:34:31.051Z,13.04
2017-10-12T04:35:31.030Z,13.06
2017-10-12T04:36:31.009Z,13.13
2017-10-12T04:37:30.981Z,13.21
2017-10-12T04:38:30.968Z,13.1
2017-10-12T04:39:30.941Z,13.09
2017-10-12T04:40:30.916Z,13.06
2017-10-12T04:41:30.896Z,13.04
2017-10-12T04:42:30.875Z,13.14
2017-10-12T04:43:30.850Z,13.07
2017-10-12T04:44:30.835Z,13.13
2017-10-12T04:45:30.815Z,13.09
2017-10-12T04:46:30.464Z,13.01
2017-10-12T04:47:30.763Z,13.03
2017-10-12T04:48:30.766Z,12.98
2017-10-12T04:49:30.717Z,13.03
2017-10-12T04:50:30.690Z,13.09
2017-10-12T04:51:30.346Z,13.06
2017-10-12T04:52:30.673Z,13.07
2017-10-12T04:53:30.638Z,12.98
2017-10-12T04:54:29.968Z,13.04
2017-10-12T04:55:30.577Z,13.14
2017-10-12T04:56:30.240Z,13.06
2017-10-12T04:57:30.527Z,13.01
2017-10-12T04:58:30.511Z,13.14
2017-10-12T04:59:30.516Z,13.13
2017-10-12T05:00:30.470Z,13.13
2017-10-12T05:01:30.449Z,13.06
2017-10-12T05:02:30.421Z,13.13
2017-10-12T05:03:30.076Z,13.14
2017-10-12T05:04:30.385Z,13.06
2017-10-12T05:05:30.355Z,13.13
2017-10-12T05:06:30.331Z,13.04
2017-10-12T05:07:30.305Z,13.13
2017-10-12T05:08:30.294Z,13.06
2017-10-12T05:09:30.272Z,13.01
2017-10-12T05:10:30.235Z,13.07
2017-10-12T05:11:30.216Z,13.01
2017-10-12T05:12:30.197Z,13.06
2017-10-12T05:13:30.165Z,13.07
2017-10-12T05:14:30.144Z,13.04
2017-10-12T05:15:30.129Z,13.06
2017-10-12T05:16:30.100Z,13.04
2017-10-12T05:17:30.074Z,13.1
2017-10-12T05:18:30.061Z,13.04
2017-10-12T05:19:30.029Z,13.04
2017-10-12T05:20:30.008Z,13.01
2017-10-12T05:21:29.664Z,13.09
2017-10-12T05:22:29.977Z,13.12
2017-10-12T05:23:29.629Z,12.98
2017-10-12T05:24:29.914Z,13.07
2017-10-12T05:25:29.931Z,13.06
2017-10-12T05:26:29.878Z,13.04
2017-10-12T05:27:29.532Z,13.06
2017-10-12T05:28:29.828Z,12.98
2017-10-12T05:29:29.803Z,13.03
2017-10-12T05:30:29.778Z,13.06
2017-10-12T05:31:29.760Z,13.04
2017-10-12T05:32:29.417Z,13.06
2017-10-12T05:33:29.719Z,12.96
2017-10-12T05:34:29.695Z,13.01
2017-10-12T05:35:29.668Z,13.03
2017-10-12T05:36:29.656Z,13.06
2017-10-12T05:37:29.303Z,13.04
2017-10-12T05:38:29.597Z,13.06
2017-10-12T05:39:29.578Z,13.13
2017-10-12T05:40:29.557Z,13.14
2017-10-12T05:41:29.529Z,13.19
2017-10-12T05:42:29.509Z,13.1
2017-10-12T05:43:29.483Z,13.17
2017-10-12T05:44:29.465Z,13.14
2017-10-12T05:45:29.432Z,13.17
2017-10-12T05:46:29.419Z,13.13
2017-10-12T05:47:29.394Z,13.09
2017-10-12T05:48:29.374Z,13.19
2017-10-12T05:49:29.352Z,13.13
2017-10-12T05:50:29.327Z,13.07
2017-10-12T05:51:29.302Z,13.12
2017-10-12T05:52:29.287Z,13.03
2017-10-12T05:53:29.262Z,13.06
2017-10-12T05:54:29.264Z,13.09
2017-10-12T05:55:29.218Z,13.04
2017-10-12T05:56:28.886Z,12.99
2017-10-12T05:57:29.173Z,13.04
2017-10-12T05:58:29.145Z,13.14
2017-10-12T05:59:29.118Z,13.04
2017-10-12T06:00:29.100Z,13.14
2017-10-12T06:01:29.075Z,13.09
2017-10-12T06:02:29.069Z,13.16
2017-10-12T06:03:29.029Z,13.13
2017-10-12T06:04:29.025Z,13.12
2017-10-12T06:05:28.990Z,13.21
2017-10-12T06:06:28.965Z,13.16
2017-10-12T06:07:28.937Z,13.16
2017-10-12T06:08:28.924Z,13.17
2017-10-12T06:09:28.905Z,13.21
2017-10-12T06:10:28.873Z,13.17
2017-10-12T06:11:28.537Z,13.27
2017-10-12T06:12:28.836Z,13.27
2017-10-12T06:13:28.805Z,13.32
2017-10-12T06:14:28.788Z,13.31
2017-10-12T06:15:28.756Z,13.32
2017-10-12T06:16:28.747Z,13.36
2017-10-12T06:17:28.719Z,13.38
2017-10-12T06:18:28.370Z,13.41
2017-10-12T06:19:28.352Z,13.43
2017-10-12T06:20:28.660Z,13.44
2017-10-12T06:21:28.631Z,13.48
2017-10-12T06:22:28.599Z,13.46
2017-10-12T06:23:28.582Z,13.46
2017-10-12T06:24:28.560Z,13.48
2017-10-12T06:25:28.539Z,13.46
2017-10-12T06:26:28.516Z,13.43
2017-10-12T06:27:28.492Z,13.44
2017-10-12T06:28:28.485Z,13.48
2017-10-12T06:29:28.455Z,13.48
2017-10-12T06:30:28.430Z,13.57
2017-10-12T06:31:28.395Z,13.62
2017-10-12T06:32:28.378Z,13.65
2017-10-12T06:33:28.356Z,13.62
2017-10-12T06:34:28.333Z,13.59
2017-10-12T06:35:28.315Z,13.61
2017-10-12T06:36:28.288Z,13.75
2017-10-12T06:37:28.271Z,13.62
2017-10-12T06:38:28.266Z,13.75
2017-10-12T06:39:28.217Z,13.66
2017-10-12T06:40:28.202Z,13.72
2017-10-12T06:41:28.173Z,13.72
2017-10-12T06:42:28.176Z,13.61
2017-10-12T06:43:28.136Z,13.69
2017-10-12T06:44:28.108Z,13.57
2017-10-12T06:45:28.086Z,13.61
2017-10-12T06:46:28.069Z,13.61
2017-10-12T06:47:28.039Z,13.62
2017-10-12T06:48:28.014Z,13.61
2017-10-12T06:49:28.011Z,13.71
2017-10-12T06:50:27.978Z,13.68
2017-10-12T06:51:27.953Z,13.73
2017-10-12T06:52:27.930Z,13.72
2017-10-12T06:53:27.920Z,13.79
2017-10-12T06:54:27.575Z,13.79
2017-10-12T06:55:27.872Z,13.73
2017-10-12T06:56:27.844Z,13.76
2017-10-12T06:57:27.828Z,13.72
2017-10-12T06:58:27.475Z,13.62
2017-10-12T06:59:27.771Z,13.66
2017-10-12T07:00:27.758Z,13.62
2017-10-12T07:01:27.732Z,13.63
2017-10-12T07:02:27.703Z,13.62
2017-10-12T07:03:27.681Z,13.61
2017-10-12T07:04:27.661Z,13.54
2017-10-12T07:05:27.644Z,13.54
2017-10-12T07:06:27.616Z,13.53
2017-10-12T07:07:27.595Z,13.65
2017-10-12T07:08:27.576Z,13.65
2017-10-12T07:09:27.558Z,13.54
2017-10-12T07:10:27.529Z,13.62
2017-10-12T07:11:27.520Z,13.59
2017-10-12T07:12:27.481Z,13.63
2017-10-12T07:13:27.140Z,13.59
2017-10-12T07:14:27.436Z,13.62
2017-10-12T07:15:27.419Z,13.75
2017-10-12T07:16:27.392Z,13.69
2017-10-12T07:17:27.371Z,13.79
2017-10-12T07:18:27.353Z,13.73
2017-10-12T07:19:27.330Z,13.73
2017-10-12T07:20:27.325Z,13.75
2017-10-12T07:21:27.287Z,13.83
2017-10-12T07:22:27.270Z,13.83
2017-10-12T07:23:26.930Z,13.81
2017-10-12T07:24:26.900Z,13.9
2017-10-12T07:25:27.199Z,13.84
2017-10-12T07:26:27.173Z,13.87
2017-10-12T07:27:27.171Z,13.86
2017-10-12T07:28:27.123Z,13.94
2017-10-12T07:29:27.109Z,13.99
2017-10-12T07:30:26.773Z,13.96
2017-10-12T07:31:27.061Z,13.96
2017-10-12T07:32:27.053Z,13.96
2017-10-12T07:33:27.019Z,13.96
2017-10-12T07:34:26.680Z,13.94
2017-10-12T07:35:26.969Z,13.93
2017-10-12T07:36:26.951Z,13.9
2017-10-12T07:37:26.928Z,13.9
2017-10-12T07:38:26.908Z,13.84
2017-10-12T07:39:26.897Z,13.86
2017-10-12T07:40:26.863Z,13.81
2017-10-12T07:41:26.575Z,13.86
2017-10-12T07:42:26.818Z,13.84
2017-10-12T07:43:26.798Z,13.88
2017-10-12T07:44:26.788Z,13.83
2017-10-12T07:45:26.766Z,13.73
2017-10-12T07:46:26.728Z,13.79
2017-10-12T07:47:26.706Z,13.73
2017-10-12T07:48:26.685Z,13.79
2017-10-12T07:49:26.354Z,13.71
2017-10-12T07:50:26.648Z,13.75
2017-10-12T07:51:26.627Z,13.83
2017-10-12T07:52:26.604Z,13.86
2017-10-12T07:53:26.578Z,13.84
2017-10-12T07:54:26.570Z,13.91
2017-10-12T07:55:26.528Z,13.81
2017-10-12T07:56:26.505Z,13.88
2017-10-12T07:57:26.504Z,13.93
2017-10-12T07:58:26.146Z,13.96
2017-10-12T07:59:26.450Z,14.04
2017-10-12T08:00:26.418Z,14.11
2017-10-12T08:01:26.420Z,14.09
2017-10-12T08:02:26.385Z,14.08
2017-10-12T08:03:26.365Z,14.16
2017-10-12T08:04:26.330Z,14.19
2017-10-12T08:05:26.313Z,14.26
2017-10-12T08:06:26.298Z,14.16
2017-10-12T08:07:26.266Z,14.09
2017-10-12T08:08:26.259Z,14.23
2017-10-12T08:09:26.242Z,14.13
2017-10-12T08:10:26.202Z,14.24
2017-10-12T08:11:26.184Z,14.21
2017-10-12T08:12:26.161Z,14.21
2017-10-12T08:13:26.140Z,14.3
2017-10-12T08:14:26.117Z,14.3
2017-10-12T08:15:26.097Z,14.38
2017-10-12T08:16:26.078Z,14.48
2017-10-12T08:17:26.061Z,14.56
2017-10-12T08:18:26.026Z,14.56
2017-10-12T08:19:26.007Z,14.54
2017-10-12T08:20:25.984Z,14.6
2017-10-12T08:21:25.648Z,14.71
2017-10-12T08:22:25.944Z,14.8
2017-10-12T08:23:25.932Z,14.9
2017-10-12T08:24:25.578Z,15.05
2017-10-12T08:25:25.551Z,15.13
2017-10-12T08:26:25.850Z,15.18
2017-10-12T08:27:25.842Z,15.34
2017-10-12T08:28:25.818Z,15.51
2017-10-12T08:29:25.793Z,15.52
2017-10-12T08:30:25.768Z,15.52
2017-10-12T08:31:25.760Z,15.48
2017-10-12T08:32:25.724Z,15.64
2017-10-12T08:33:25.711Z,15.73
2017-10-12T08:34:25.702Z,15.74
2017-10-12T08:35:25.668Z,15.89
2017-10-12T08:36:25.674Z,15.85
2017-10-12T08:37:25.631Z,16.04
2017-10-12T08:38:25.603Z,15.93
2017-10-12T08:39:25.583Z,16.06
2017-10-12T08:40:25.559Z,16.16
2017-10-12T08:41:25.556Z,16.37
2017-10-12T08:42:25.517Z,16.41
2017-10-12T08:43:25.496Z,16.18
2017-10-12T08:44:25.489Z,16.25
2017-10-12T08:45:25.463Z,16.26
2017-10-12T08:46:25.432Z,16.26
2017-10-12T08:47:25.423Z,16.16
2017-10-12T08:48:25.399Z,16.07
2017-10-12T08:49:25.379Z,16.17
2017-10-12T08:50:25.356Z,16.11
2017-10-12T08:51:25.333Z,16.13
2017-10-12T08:52:25.314Z,16.01
2017-10-12T08:53:25.309Z,15.95
2017-10-12T08:54:25.275Z,15.92
2017-10-12T08:55:25.251Z,15.89
2017-10-12T08:56:25.244Z,15.88
2017-10-12T08:57:25.223Z,15.77
2017-10-12T08:58:25.193Z,15.67
2017-10-12T08:59:25.164Z,15.73
2017-10-12T09:00:25.145Z,15.62
2017-10-12T09:01:25.131Z,15.51
2017-10-12T09:02:25.108Z,15.41
2017-10-12T09:03:25.096Z,15.33
2017-10-12T09:04:25.084Z,15.34
2017-10-12T09:05:25.034Z,15.18
2017-10-12T09:06:25.021Z,15.13
2017-10-12T09:07:25.002Z,15.12
2017-10-12T09:08:24.975Z,15.11
2017-10-12T09:09:24.953Z,15.09
2017-10-12T09:10:24.948Z,15.07
2017-10-12T09:11:24.924Z,15.05
2017-10-12T09:12:24.895Z,15.09
2017-10-12T09:13:24.869Z,15.11
2017-10-12T09:14:24.871Z,15.07
2017-10-12T09:15:24.513Z,15.15
2017-10-12T09:16:24.811Z,15.16
2017-10-12T09:17:24.795Z,15.3
2017-10-12T09:18:24.773Z,15.28
2017-10-12T09:19:24.431Z,15.18
2017-10-12T09:20:24.727Z,15.16
2017-10-12T09:21:24.698Z,15.19
2017-10-12T09:22:24.687Z,15.11
2017-10-12T09:23:24.675Z,15.15
2017-10-12T09:24:24.640Z,15.03
2017-10-12T09:25:24.618Z,15.04
2017-10-12T09:26:24.599Z,14.95
2017-10-12T09:27:24.571Z,14.97
2017-10-12T09:28:24.601Z,15.13
2017-10-12T09:29:24.534Z,15.11
2017-10-12T09:30:24.515Z,15.2
2017-10-12T09:31:24.488Z,15.18
2017-10-12T09:32:24.467Z,15.3
2017-10-12T09:33:24.448Z,15.23
2017-10-12T09:34:24.444Z,15.23
2017-10-12T09:35:24.403Z,15.13
2017-10-12T09:36:24.388Z,15.15
2017-10-12T09:37:24.358Z,15.18
2017-10-12T09:38:24.337Z,15.22
2017-10-12T09:39:24.320Z,15.18
2017-10-12T09:40:24.334Z,15.38
2017-10-12T09:41:24.292Z,15.43
2017-10-12T09:42:24.261Z,15.48
2017-10-12T09:43:24.263Z,15.48
2017-10-12T09:44:23.571Z,15.41
2017-10-12T09:45:24.194Z,15.41
2017-10-12T09:46:24.183Z,15.31
2017-10-12T09:47:24.165Z,15.3
2017-10-12T09:48:24.133Z,15.4
2017-10-12T09:49:23.783Z,15.4
2017-10-12T09:50:24.091Z,15.43
2017-10-12T09:51:24.061Z,15.49
2017-10-12T09:52:24.051Z,15.51
2017-10-12T09:53:24.030Z,15.58
2017-10-12T09:54:24.006Z,15.46
2017-10-12T09:55:23.979Z,15.64
2017-10-12T09:56:23.982Z,15.66
2017-10-12T09:57:23.624Z,15.53
2017-10-12T09:58:23.924Z,15.58
2017-10-12T09:59:23.896Z,15.55
2017-10-12T10:00:23.878Z,15.55
2017-10-12T10:01:23.634Z,15.55
2017-10-12T10:02:23.843Z,15.55
2017-10-12T10:03:23.821Z,15.55
2017-10-12T10:04:23.787Z,15.66
2017-10-12T10:05:23.776Z,15.67
2017-10-12T10:06:23.745Z,15.74
2017-10-12T10:07:23.737Z,15.76
2017-10-12T10:08:23.703Z,15.8
2017-10-12T10:09:23.685Z,15.81
2017-10-12T10:10:23.664Z,15.81
2017-10-12T10:11:23.640Z,15.67
2017-10-12T10:12:23.625Z,15.55
2017-10-12T10:13:23.596Z,15.7
2017-10-12T10:14:23.584Z,15.67
2017-10-12T10:15:23.559Z,15.55
2017-10-12T10:16:23.535Z,15.68
2017-10-12T10:17:23.518Z,15.71
2017-10-12T10:18:23.503Z,15.7
2017-10-12T10:19:23.497Z,15.71
2017-10-12T10:20:23.451Z,15.77
2017-10-12T10:21:23.433Z,15.77
2017-10-12T10:22:23.414Z,15.73
2017-10-12T10:23:23.386Z,15.77
2017-10-12T10:24:23.057Z,15.81
2017-10-12T10:25:23.366Z,15.78
2017-10-12T10:26:23.330Z,15.77
2017-10-12T10:27:23.304Z,15.77
2017-10-12T10:28:23.288Z,15.86
2017-10-12T10:29:23.264Z,15.84
2017-10-12T10:30:23.253Z,15.85
2017-10-12T10:31:23.222Z,15.86
2017-10-12T10:32:23.205Z,15.91
2017-10-12T10:33:23.183Z,15.99
2017-10-12T10:34:23.166Z,15.85
2017-10-12T10:35:23.142Z,15.85
2017-10-12T10:36:23.110Z,15.93
2017-10-12T10:37:23.102Z,15.93
2017-10-12T10:38:23.078Z,15.92
2017-10-12T10:39:23.075Z,15.91
2017-10-12T10:40:23.035Z,15.95
2017-10-12T10:41:23.027Z,15.98
2017-10-12T10:42:22.999Z,16.08
2017-10-12T10:43:22.971Z,16.14
2017-10-12T10:44:22.946Z,16.18
2017-10-12T10:45:22.924Z,16.26
2017-10-12T10:46:22.906Z,16.22
2017-10-12T10:47:22.887Z,16.3
2017-10-12T10:48:22.545Z,16.41
2017-10-12T10:49:22.843Z,16.44
2017-10-12T10:50:22.821Z,16.48
2017-10-12T10:51:22.811Z,16.45
2017-10-12T10:52:22.474Z,16.47
2017-10-12T10:53:22.758Z,16.45
2017-10-12T10:54:22.755Z,16.44
2017-10-12T10:55:22.723Z,16.27
2017-10-12T10:56:22.703Z,16.17
2017-10-12T10:57:22.676Z,16.13
2017-10-12T10:58:22.672Z,16.07
2017-10-12T10:59:22.638Z,16.1
2017-10-12T11:00:22.620Z,16.13
2017-10-12T11:01:22.592Z,16.13
2017-10-12T11:02:22.267Z,16.14
2017-10-12T11:03:22.560Z,16.25
2017-10-12T11:04:22.534Z,16.17
2017-10-12T11:05:22.518Z,16.26
2017-10-12T11:06:22.490Z,16.23
2017-10-12T11:07:22.480Z,16.3
2017-10-12T11:08:22.455Z,16.34
2017-10-12T11:09:22.429Z,16.48
2017-10-12T11:10:22.411Z,16.51
2017-10-12T11:11:22.390Z,16.5
2017-10-12T11:12:22.378Z,16.48
2017-10-12T11:13:22.026Z,16.51
2017-10-12T11:14:22.326Z,16.57
2017-10-12T11:15:22.316Z,16.6
2017-10-12T11:16:22.298Z,16.57
2017-10-12T11:17:22.261Z,16.54
2017-10-12T11:18:22.248Z,16.6
2017-10-12T11:19:22.230Z,16.6
2017-10-12T11:20:22.203Z,16.59
2017-10-12T11:21:21.549Z,16.65
2017-10-12T11:22:22.165Z,16.65
2017-10-12T11:23:22.136Z,16.65
2017-10-12T11:24:22.134Z,16.69
2017-10-12T11:25:22.097Z,16.65
2017-10-12T11:26:22.074Z,16.63
2017-10-12T11:27:22.058Z,16.72
2017-10-12T11:28:22.042Z,16.67
2017-10-12T11:29:21.698Z,16.72
2017-10-12T11:30:21.998Z,16.66
2017-10-12T11:31:21.978Z,16.73
2017-10-12T11:32:21.962Z,16.75
2017-10-12T11:33:21.938Z,16.88
2017-10-12T11:34:21.921Z,16.9
2017-10-12T11:35:21.895Z,16.88
2017-10-12T11:36:21.878Z,16.98
2017-10-12T11:37:21.863Z,17
2017-10-12T11:38:21.517Z,16.92
2017-10-12T11:39:21.812Z,16.99
2017-10-12T11:40:21.799Z,16.92
2017-10-12T11:41:21.774Z,16.91
2017-10-12T11:42:21.748Z,17.02
2017-10-12T11:43:21.735Z,16.91
2017-10-12T11:44:21.398Z,16.99
2017-10-12T11:45:21.693Z,16.91
2017-10-12T11:46:21.667Z,16.95
2017-10-12T11:47:21.649Z,16.91
2017-10-12T11:48:21.636Z,16.98
2017-10-12T11:49:21.608Z,16.9
2017-10-12T11:50:21.590Z,16.96
2017-10-12T11:51:21.580Z,16.92
2017-10-12T11:52:21.546Z,16.95
2017-10-12T11:53:21.530Z,16.85
2017-10-12T11:54:21.506Z,16.84
2017-10-12T11:55:21.487Z,16.75
2017-10-12T11:56:21.469Z,16.81
2017-10-12T11:57:21.448Z,16.77
2017-10-12T11:58:21.425Z,16.66
2017-10-12T11:59:21.083Z,16.78
2017-10-12T12:00:21.386Z,16.77
2017-10-12T12:01:21.041Z,16.73
2017-10-12T12:02:21.344Z,16.8
2017-10-12T12:03:21.320Z,16.7
2017-10-12T12:04:21.295Z,16.73
2017-10-12T12:05:21.285Z,16.75
2017-10-12T12:06:21.261Z,16.75
2017-10-12T12:07:21.248Z,16.81
2017-10-12T12:08:20.900Z,16.78
2017-10-12T12:09:21.198Z,16.75
2017-10-12T12:10:21.172Z,16.81
2017-10-12T12:11:21.160Z,16.75
2017-10-12T12:12:21.148Z,16.8
2017-10-12T12:13:21.133Z,16.91
2017-10-12T12:14:21.099Z,16.88
2017-10-12T12:15:21.086Z,16.87
2017-10-12T12:16:21.061Z,16.84
2017-10-12T12:17:21.032Z,16.88
2017-10-12T12:18:21.023Z,16.84
2017-10-12T12:19:20.990Z,16.8
2017-10-12T12:20:20.965Z,16.87
2017-10-12T12:21:20.951Z,16.82
2017-10-12T12:22:20.939Z,16.81
2017-10-12T12:23:20.919Z,16.77
2017-10-12T12:24:20.915Z,16.73
2017-10-12T12:25:20.872Z,16.81
2017-10-12T12:26:20.851Z,16.75
2017-10-12T12:27:20.519Z,16.81
2017-10-12T12:28:20.487Z,16.7
2017-10-12T12:29:20.793Z,16.66
2017-10-12T12:30:20.786Z,16.67
2017-10-12T12:31:20.753Z,16.72
2017-10-12T12:32:20.732Z,16.67
2017-10-12T12:33:20.714Z,16.62
2017-10-12T12:34:20.698Z,16.66
2017-10-12T12:35:20.665Z,16.63
2017-10-12T12:36:20.643Z,16.62
2017-10-12T12:37:20.627Z,16.6
2017-10-12T12:38:20.604Z,16.59
2017-10-12T12:39:20.586Z,16.57
2017-10-12T12:40:20.563Z,16.54
2017-10-12T12:41:20.548Z,16.52
2017-10-12T12:42:20.529Z,16.54
2017-10-12T12:43:20.498Z,16.55
2017-10-12T12:44:20.492Z,16.52
2017-10-12T12:45:20.462Z,16.57
2017-10-12T12:46:20.448Z,16.44
2017-10-12T12:47:20.426Z,16.44
2017-10-12T12:48:20.398Z,16.47
2017-10-12T12:49:20.381Z,16.57
2017-10-12T12:50:20.352Z,16.51
2017-10-12T12:51:20.337Z,16.44
2017-10-12T12:52:19.992Z,16.47
2017-10-12T12:53:20.290Z,16.52
2017-10-12T12:54:20.282Z,16.51